This is the latest recevied weather packets stored in our database for station/object KE5QKR. If no packets are shown the sender has not sent any weather packets the latest 10 day(s).
| Time | Temp. | Humidity | Pressure | Rain* | Wind** | Luminosity | Snow |
|---|---|---|---|---|---|---|---|
| 1778358127 | 19.44° C | 99% | 1010.9 hPa | 0 mm | - | 59 W/m² | - |
| 1778357823 | 19.44° C | 99% | 1010.4 hPa | 0 mm | - | 48 W/m² | - |
| 1778357520 | 19.44° C | 99% | 1010.2 hPa | 0 mm | - | 64 W/m² | - |
| 1778357216 | 19.44° C | 99% | 1010.1 hPa | 0 mm | - | 64 W/m² | - |
| 1778356911 | 19.44° C | 99% | 1010.2 hPa | 0 mm | - | 69 W/m² | - |
| 1778356608 | 19.44° C | 99% | 1010.4 hPa | 0 mm | - | 67 W/m² | - |
| 1778356303 | 19.44° C | 99% | 1010.7 hPa | 0 mm | - | 50 W/m² | - |
| 1778356002 | 19.44° C | 99% | 1010.8 hPa | 0 mm | - | 43 W/m² | - |
| 1778355700 | 19.44° C | 99% | 1010.8 hPa | 0 mm | - | 37 W/m² | - |
| 1778355396 | 19.44° C | 99% | 1011 hPa | 0 mm | - | 35 W/m² | - |
| 1778355091 | 19.44° C | 99% | 1010.6 hPa | 0 mm | - | 36 W/m² | - |
| 1778354788 | 19.44° C | 99% | 1010.9 hPa | 0 mm | - | 41 W/m² | - |
| 1778354484 | 19.44° C | 99% | 1010.9 hPa | 0 mm | - | 41 W/m² | - |
| 1778354183 | 19.44° C | 99% | 1010.5 hPa | 0 mm | - | 41 W/m² | - |
| 1778353880 | 19.44° C | 99% | 1010.4 hPa | 0 mm | - | 44 W/m² | - |
| 1778353577 | 19.44° C | 99% | 1010.7 hPa | 0 mm | - | 48 W/m² | - |
| 1778353274 | 18.89° C | 99% | 1010.5 hPa | 0 mm | - | 41 W/m² | - |
| 1778352972 | 18.89° C | 99% | 1010.5 hPa | 0 mm | - | 43 W/m² | - |
| 1778352668 | 18.89° C | 99% | 1010.8 hPa | 0 mm | - | 38 W/m² | - |
| 1778352366 | 18.89° C | 99% | 1010.4 hPa | 0 mm | - | 46 W/m² | - |
| 1778352063 | 18.89° C | 99% | 1011.2 hPa | 0 mm | - | 31 W/m² | - |
| 1778351758 | 18.89° C | 99% | 1010.3 hPa | 0 mm | - | 56 W/m² | - |
| 1778351454 | 18.89° C | 99% | 1010 hPa | 0 mm | - | 46 W/m² | - |
| 1778351150 | 18.33° C | 99% | 1010.5 hPa | 0 mm | - | 41 W/m² | - |
| 1778350847 | 18.33° C | 99% | 1010.2 hPa | 0 mm | - | 38 W/m² | - |
* Rain latest hour (hover to see other rain measurements)
** Current wind speed in m/s (hover to see current wind gust speed)